Time;durP1;ratioP1;P1;durP2;ratioP2;P2;SDS_P1;SDS_P2;PMS_P1;PMS_P2;Temp;Humidity;BMP_temperature;BMP_pressure;BME280_temperature;BME280_humidity;BME280_pressure;Samples;Min_cycle;Max_cycle;Signal;HPM_P1;HPM_P2
2024/04/01 00:01:21;;;;;;;9.30;1.50;;;19.20;39.30;;;;;;5034063;28;20052;-78
2024/04/01 00:03:47;;;;;;;9.18;1.42;;;19.10;39.50;;;;;;5054508;28;20052;-78
2024/04/01 00:06:13;;;;;;;13.02;1.40;;;19.00;39.60;;;;;;5038009;28;20064;-77
2024/04/01 00:08:39;;;;;;;7.07;1.40;;;19.10;39.70;;;;;;5038028;28;20052;-77
2024/04/01 00:11:04;;;;;;;9.85;1.55;;;19.00;39.60;;;;;;5039633;28;20044;-79
2024/04/01 00:13:32;;;;;;;12.68;1.70;;;19.10;39.80;;;;;;5052822;28;20060;-78
2024/04/01 00:15:58;;;;;;;11.18;1.80;;;19.10;40.00;;;;;;5038059;28;20110;-79
2024/04/01 00:18:26;;;;;;;8.38;2.08;;;19.00;40.00;;;;;;5054590;28;20404;-78
2024/04/01 00:20:56;;;;;;;10.60;1.40;;;19.00;40.20;;;;;;5035191;28;20058;-78
2024/04/01 00:23:23;;;;;;;11.90;2.20;;;18.90;40.60;;;;;;5038170;28;20044;-79
2024/04/01 00:25:49;;;;;;;14.85;1.42;;;18.80;41.30;;;;;;5027214;28;20087;-78
2024/04/01 00:28:15;;;;;;;8.43;1.63;;;18.80;40.80;;;;;;5035717;28;20128;-77
2024/04/01 00:30:41;;;;;;;8.05;1.60;;;18.80;40.90;;;;;;5054527;28;20056;-77
2024/04/01 00:33:09;;;;;;;8.65;1.67;;;18.80;41.10;;;;;;5037714;28;20052;-78
2024/04/01 00:35:41;;;;;;;8.10;1.40;;;18.70;41.10;;;;;;5053927;28;20040;-78
2024/04/01 00:38:10;;;;;;;9.00;1.77;;;18.70;40.90;;;;;;5051743;28;20048;-78
2024/04/01 00:40:36;;;;;;;7.68;1.17;;;18.80;40.90;;;;;;5054116;28;20465;-79
2024/04/01 00:43:08;;;;;;;12.38;1.45;;;18.70;40.90;;;;;;5072368;28;20048;-78
2024/04/01 00:45:43;;;;;;;7.28;1.08;;;18.70;41.20;;;;;;5074709;28;20059;-78
2024/04/01 00:48:15;;;;;;;12.10;1.92;;;18.80;41.00;;;;;;5074392;28;20109;-78
2024/04/01 00:50:44;;;;;;;11.93;1.70;;;18.80;40.80;;;;;;5060764;28;20505;-78
2024/04/01 00:53:11;;;;;;;10.05;1.60;;;18.90;40.70;;;;;;5073424;28;20052;-78
2024/04/01 00:55:42;;;;;;;10.18;1.33;;;18.80;40.70;;;;;;5078526;28;20125;-78
2024/04/01 00:58:09;;;;;;;10.18;1.70;;;18.80;41.00;;;;;;5058901;28;20052;-78
2024/04/01 01:00:38;;;;;;;7.82;0.80;;;18.80;41.20;;;;;;5078710;28;20059;-77
2024/04/01 01:03:08;;;;;;;11.38;1.80;;;18.80;41.20;;;;;;5077956;28;20048;-78
2024/04/01 01:05:35;;;;;;;14.02;1.35;;;18.90;41.00;;;;;;5061455;28;20365;-78
2024/04/01 01:08:01;;;;;;;13.73;1.80;;;18.90;40.90;;;;;;5061174;28;20105;-79
2024/04/01 01:10:31;;;;;;;13.70;2.05;;;18.90;40.80;;;;;;5061691;28;20097;-78
2024/04/01 01:13:00;;;;;;;9.25;1.40;;;19.00;41.00;;;;;;5061314;28;20074;-79
2024/04/01 01:15:29;;;;;;;11.80;1.40;;;19.00;40.90;;;;;;5056980;28;20055;-78
2024/04/01 01:17:58;;;;;;;14.88;1.73;;;18.90;40.80;;;;;;5078027;28;20051;-78
2024/04/01 01:20:24;;;;;;;10.50;1.52;;;19.00;40.90;;;;;;5060651;28;20047;-79
2024/04/01 01:22:50;;;;;;;10.10;2.20;;;19.00;40.80;;;;;;5061160;28;20380;-78
2024/04/01 01:25:16;;;;;;;9.48;1.58;;;19.00;40.80;;;;;;5061148;28;20055;-78
2024/04/01 01:27:43;;;;;;;16.88;1.20;;;19.00;41.00;;;;;;5060855;28;20048;-78
2024/04/01 01:30:16;;;;;;;14.05;2.00;;;18.90;41.20;;;;;;5060932;28;20464;-79
2024/04/01 01:32:49;;;;;;;16.07;1.67;;;18.90;41.20;;;;;;5077327;28;20051;-79
2024/04/01 01:35:20;;;;;;;11.10;1.42;;;18.90;41.30;;;;;;5059038;28;20048;-79
2024/04/01 01:37:47;;;;;;;9.18;1.40;;;18.80;41.30;;;;;;5060450;28;20059;-78
2024/04/01 01:40:13;;;;;;;11.50;1.83;;;18.90;41.60;;;;;;5075296;28;20055;-78
2024/04/01 01:42:39;;;;;;;7.70;1.40;;;18.80;41.50;;;;;;5060625;28;20052;-78
2024/04/01 01:45:06;;;;;;;7.60;1.65;;;18.90;41.50;;;;;;5060404;28;20052;-78
2024/04/01 01:47:36;;;;;;;9.75;1.58;;;18.90;41.50;;;;;;5060739;28;20534;-77
2024/04/01 01:50:04;;;;;;;8.27;1.38;;;18.90;41.50;;;;;;5077152;28;20049;-79
2024/04/01 01:52:30;;;;;;;9.23;1.00;;;19.00;41.40;;;;;;5077492;28;20066;-78
2024/04/01 01:54:56;;;;;;;11.95;1.40;;;19.10;41.40;;;;;;5076723;28;20084;-78
2024/04/01 01:57:23;;;;;;;9.40;1.42;;;19.10;41.30;;;;;;5073667;28;20063;-79
2024/04/01 01:59:49;;;;;;;7.65;1.33;;;19.00;41.60;;;;;;5076404;28;20048;-78
2024/04/01 02:02:18;;;;;;;9.70;1.98;;;19.00;41.70;;;;;;5076998;28;20072;-78
2024/04/01 02:04:46;;;;;;;13.68;1.30;;;18.90;41.80;;;;;;5060099;28;20460;-78
2024/04/01 02:07:12;;;;;;;7.13;1.35;;;18.90;42.10;;;;;;5060465;28;20068;-78
2024/04/01 02:09:38;;;;;;;15.00;1.85;;;18.80;42.50;;;;;;5060161;28;20054;-78
2024/04/01 02:12:08;;;;;;;9.43;1.50;;;18.80;42.60;;;;;;5049205;28;20439;-78
2024/04/01 02:14:37;;;;;;;12.27;1.98;;;18.70;42.50;;;;;;5059752;28;20048;-78
2024/04/01 02:17:04;;;;;;;8.07;1.42;;;18.70;42.50;;;;;;5059868;28;20048;-77
2024/04/01 02:19:31;;;;;;;11.10;1.52;;;18.80;42.50;;;;;;5076884;28;20075;-79
2024/04/01 02:21:57;;;;;;;8.57;1.17;;;18.80;42.30;;;;;;5060132;28;20058;-78
2024/04/01 02:24:26;;;;;;;12.25;1.58;;;18.80;42.20;;;;;;5060047;28;20450;-78
2024/04/01 02:26:53;;;;;;;8.57;1.27;;;18.80;42.30;;;;;;5060131;28;20369;-78
2024/04/01 02:29:19;;;;;;;8.73;1.80;;;18.90;42.40;;;;;;5049282;28;20064;-78
2024/04/01 02:31:45;;;;;;;8.23;1.05;;;19.00;42.30;;;;;;5048562;28;20060;-78
2024/04/01 02:34:11;;;;;;;8.85;1.10;;;19.10;42.00;;;;;;5076732;28;20376;-77
2024/04/01 02:36:39;;;;;;;7.10;1.13;;;19.20;41.80;;;;;;5059390;28;20056;-78
2024/04/01 02:39:05;;;;;;;13.30;1.27;;;19.20;41.70;;;;;;5059720;28;20044;-78
2024/04/01 02:41:35;;;;;;;7.15;1.17;;;19.20;41.70;;;;;;5059230;28;20472;-78
2024/04/01 02:44:01;;;;;;;9.48;1.30;;;19.30;41.80;;;;;;5076367;28;20052;-79
2024/04/01 02:46:27;;;;;;;10.75;1.58;;;19.40;41.70;;;;;;5059487;28;20369;-79
2024/04/01 02:48:53;;;;;;;8.15;1.25;;;19.40;41.70;;;;;;5059316;28;20091;-78
2024/04/01 02:51:18;;;;;;;12.05;1.48;;;19.40;41.50;;;;;;5075990;28;20459;-79
2024/04/01 02:53:50;;;;;;;8.48;0.90;;;19.40;41.50;;;;;;5059390;28;20135;-79
2024/04/01 02:56:16;;;;;;;12.38;1.00;;;19.30;41.70;;;;;;5059441;28;20052;-77
2024/04/01 02:58:48;;;;;;;4.22;0.80;;;19.20;41.90;;;;;;5059169;28;20048;-79
2024/04/01 03:01:15;;;;;;;11.23;1.58;;;19.10;42.30;;;;;;5057579;28;20044;-78
2024/04/01 03:03:41;;;;;;;6.45;0.70;;;19.00;42.40;;;;;;5059237;28;20369;-79
2024/04/01 03:06:07;;;;;;;7.60;1.08;;;19.00;42.60;;;;;;5059372;28;20086;-78
2024/04/01 03:08:38;;;;;;;9.82;1.30;;;19.00;43.00;;;;;;5059151;28;20422;-78
2024/04/01 03:11:04;;;;;;;7.65;1.13;;;19.00;43.00;;;;;;5075541;28;20048;-78
2024/04/01 03:13:30;;;;;;;8.85;1.02;;;19.00;42.90;;;;;;5074814;28;20059;-77
2024/04/01 03:15:57;;;;;;;7.30;1.20;;;19.00;43.00;;;;;;5058798;28;20052;-78
2024/04/01 03:18:26;;;;;;;11.77;1.30;;;19.00;42.90;;;;;;5058566;28;20048;-79
2024/04/01 03:20:52;;;;;;;10.90;1.50;;;19.00;43.30;;;;;;5075349;28;20495;-79
2024/04/01 03:23:18;;;;;;;10.57;1.20;;;19.00;43.20;;;;;;5075683;28;20051;-78
2024/04/01 03:25:51;;;;;;;7.35;1.13;;;19.00;43.20;;;;;;5058596;28;20067;-78
2024/04/01 03:28:20;;;;;;;12.88;4.10;;;18.90;43.60;;;;;;5075936;28;20056;-79
2024/04/01 03:30:49;;;;;;;12.27;1.60;;;18.90;43.60;;;;;;5051087;28;20439;-77
2024/04/01 03:33:16;;;;;;;9.38;1.02;;;18.90;43.60;;;;;;5072961;28;20048;-78
2024/04/01 03:35:44;;;;;;;10.65;1.85;;;18.90;43.60;;;;;;5058686;28;20414;-79
2024/04/01 03:38:11;;;;;;;7.78;1.02;;;18.80;43.60;;;;;;5074819;28;20059;-78
2024/04/01 03:40:41;;;;;;;11.90;1.33;;;18.80;43.60;;;;;;5056913;28;20350;-79
2024/04/01 03:43:11;;;;;;;6.05;1.00;;;18.80;43.90;;;;;;5058684;28;20105;-78
2024/04/01 03:45:37;;;;;;;9.27;1.23;;;18.70;44.00;;;;;;5074960;28;20041;-79
2024/04/01 03:48:06;;;;;;;9.48;1.27;;;18.60;43.80;;;;;;5078855;28;20510;-78
2024/04/01 03:50:32;;;;;;;6.88;1.00;;;18.70;43.80;;;;;;5074847;28;20484;-79
2024/04/01 03:53:00;;;;;;;9.55;1.42;;;18.70;43.70;;;;;;5057999;28;20048;-78
2024/04/01 03:55:29;;;;;;;6.93;1.25;;;18.70;43.70;;;;;;5071634;28;20048;-78
2024/04/01 03:57:55;;;;;;;8.55;1.00;;;18.70;43.70;;;;;;5058179;28;20051;-78
2024/04/01 04:00:21;;;;;;;5.40;0.95;;;18.70;43.60;;;;;;5058163;28;20052;-78
2024/04/01 04:02:47;;;;;;;6.03;1.02;;;18.70;43.80;;;;;;5057928;28;20127;-78
2024/04/01 04:05:13;;;;;;;8.98;1.25;;;18.80;44.00;;;;;;5058249;28;20048;-79
2024/04/01 04:07:41;;;;;;;5.30;1.00;;;18.70;43.90;;;;;;5074444;28;20056;-78
2024/04/01 04:10:07;;;;;;;9.05;1.23;;;18.70;44.00;;;;;;5057949;28;20086;-78
2024/04/01 04:12:34;;;;;;;6.53;1.00;;;18.70;44.20;;;;;;5057828;28;20060;-79
2024/04/01 04:15:03;;;;;;;5.70;1.10;;;18.60;44.50;;;;;;5055778;28;20052;-78
2024/04/01 04:17:30;;;;;;;9.15;1.00;;;18.60;44.60;;;;;;5074042;28;20048;-78
2024/04/01 04:19:56;;;;;;;9.02;1.30;;;18.50;44.60;;;;;;5074611;28;20044;-79
2024/04/01 04:22:22;;;;;;;8.15;1.02;;;18.50;44.80;;;;;;5058324;28;20120;-78
2024/04/01 04:24:50;;;;;;;14.50;1.80;;;18.40;45.20;;;;;;5074394;28;20416;-79
2024/04/01 04:27:16;;;;;;;8.75;1.35;;;18.30;45.20;;;;;;5058054;28;20052;-78
2024/04/01 04:29:42;;;;;;;12.38;1.85;;;18.30;45.20;;;;;;5058010;28;20055;-79
2024/04/01 04:32:12;;;;;;;12.60;1.65;;;18.20;46.00;;;;;;5074103;28;20066;-79
2024/04/01 04:34:43;;;;;;;6.97;1.38;;;18.10;46.10;;;;;;5058021;28;20113;-78
2024/04/01 04:37:09;;;;;;;8.00;1.15;;;18.00;46.50;;;;;;5057470;28;20056;-78
2024/04/01 04:39:35;;;;;;;8.65;1.33;;;17.90;46.50;;;;;;5074132;28;20530;-77
2024/04/01 04:42:02;;;;;;;10.15;2.17;;;17.80;46.90;;;;;;5074418;28;20048;-78
2024/04/01 04:44:28;;;;;;;9.73;1.83;;;17.70;47.10;;;;;;5074176;28;20044;-79
2024/04/01 04:46:54;;;;;;;9.50;1.83;;;17.70;47.20;;;;;;5072151;28;20056;-78
2024/04/01 04:49:20;;;;;;;23.48;8.88;;;17.60;47.90;;;;;;5071398;28;20373;-78
2024/04/01 04:51:47;;;;;;;9.55;2.95;;;17.50;47.70;;;;;;5057261;28;20052;-78
2024/04/01 04:54:13;;;;;;;12.05;2.35;;;17.30;48.20;;;;;;5057794;28;20120;-79
2024/04/01 04:56:41;;;;;;;11.50;1.63;;;17.30;48.40;;;;;;5057653;28;20464;-78
2024/04/01 04:59:10;;;;;;;9.18;1.40;;;17.20;49.00;;;;;;5051237;28;20055;-77
2024/04/01 05:01:36;;;;;;;10.68;1.38;;;17.10;49.50;;;;;;5057176;28;20059;-78
2024/04/01 05:04:04;;;;;;;8.10;1.40;;;17.00;49.60;;;;;;5074361;28;20052;-78
2024/04/01 05:06:31;;;;;;;14.55;1.77;;;16.90;50.00;;;;;;5054329;28;20495;-79
2024/04/01 05:08:58;;;;;;;12.18;1.80;;;16.90;50.40;;;;;;5056748;28;20456;-78
2024/04/01 05:11:23;;;;;;;8.50;1.95;;;16.80;50.40;;;;;;5057461;28;20113;-77
2024/04/01 05:13:49;;;;;;;15.27;4.60;;;16.80;50.70;;;;;;5057555;28;20060;-78
2024/04/01 05:16:17;;;;;;;13.43;3.88;;;16.70;51.00;;;;;;5057496;28;20051;-78
2024/04/01 05:18:46;;;;;;;12.95;2.72;;;16.70;51.30;;;;;;5056987;28;20048;-77
2024/04/01 05:21:12;;;;;;;17.55;4.22;;;16.70;51.40;;;;;;5052674;28;20060;-77
2024/04/01 05:23:38;;;;;;;16.30;3.58;;;16.70;51.20;;;;;;5074137;28;20067;-78
2024/04/01 05:26:05;;;;;;;13.38;2.85;;;16.60;51.60;;;;;;5057012;28;20498;-79
2024/04/01 05:28:34;;;;;;;12.93;3.55;;;16.60;51.30;;;;;;5073613;28;20473;-78
2024/04/01 05:31:02;;;;;;;11.60;3.47;;;16.60;51.70;;;;;;5073187;28;20056;-78
2024/04/01 05:33:33;;;;;;;26.05;8.80;;;16.60;51.30;;;;;;5057282;28;20105;-77
2024/04/01 05:36:02;;;;;;;30.90;11.52;;;16.60;51.40;;;;;;5057637;28;20059;-76
2024/04/01 05:38:29;;;;;;;19.50;7.90;;;16.60;51.90;;;;;;5077812;28;20873;-76
2024/04/01 05:40:57;;;;;;;15.35;3.97;;;16.60;52.60;;;;;;5076961;28;20059;-76
2024/04/01 05:43:25;;;;;;;15.02;3.38;;;16.60;52.70;;;;;;5077658;28;20059;-75
2024/04/01 05:45:51;;;;;;;15.57;3.13;;;16.60;52.70;;;;;;5077431;28;20044;-78
2024/04/01 05:48:17;;;;;;;11.32;2.95;;;16.50;52.70;;;;;;5060127;28;20063;-75
2024/04/01 05:50:51;;;;;;;7.53;2.88;;;16.60;52.70;;;;;;5077668;28;20848;-76
2024/04/01 05:53:17;;;;;;;7.85;1.50;;;16.50;53.10;;;;;;5060483;28;20507;-76
2024/04/01 05:55:43;;;;;;;10.55;2.25;;;16.50;53.90;;;;;;5077130;28;20064;-75
2024/04/01 05:58:10;;;;;;;15.45;2.53;;;16.50;53.40;;;;;;5059925;28;20113;-76
2024/04/01 06:00:36;;;;;;;16.65;2.58;;;16.50;53.50;;;;;;5077086;28;20056;-76
2024/04/01 06:03:02;;;;;;;16.42;2.45;;;16.60;53.50;;;;;;5059760;28;20044;-76
2024/04/01 06:05:30;;;;;;;14.52;2.63;;;16.60;53.80;;;;;;5060418;28;20500;-75
2024/04/01 06:07:57;;;;;;;11.57;1.85;;;16.50;54.20;;;;;;5077404;28;20358;-76
2024/04/01 06:10:23;;;;;;;11.90;1.90;;;16.60;53.70;;;;;;5077359;28;20064;-76
2024/04/01 06:12:53;;;;;;;14.43;1.75;;;16.60;53.90;;;;;;5076680;28;20110;-76
2024/04/01 06:15:22;;;;;;;7.53;1.45;;;16.60;54.60;;;;;;5075008;28;20077;-78
2024/04/01 06:17:50;;;;;;;6.68;1.77;;;16.60;54.10;;;;;;5075947;28;20048;-79
2024/04/01 06:20:18;;;;;;;7.57;1.73;;;16.70;53.90;;;;;;5059951;28;20063;-76
2024/04/01 06:22:44;;;;;;;7.28;1.48;;;16.60;54.20;;;;;;5060300;28;20380;-79
2024/04/01 06:25:09;;;;;;;9.48;1.38;;;16.70;53.40;;;;;;5072619;28;20135;-76
2024/04/01 06:27:35;;;;;;;4.32;0.70;;;16.80;51.90;;;;;;5059799;28;20063;-78
2024/04/01 06:30:01;;;;;;;4.75;0.70;;;16.90;51.50;;;;;;5059919;28;20058;-78
2024/04/01 06:32:27;;;;;;;4.13;0.77;;;17.20;50.00;;;;;;5059363;28;20476;-76
2024/04/01 06:34:53;;;;;;;9.68;1.33;;;17.40;49.60;;;;;;5076365;28;20116;-76
2024/04/01 06:37:19;;;;;;;7.20;0.80;;;17.60;49.20;;;;;;5059594;28;20064;-79
2024/04/01 06:39:45;;;;;;;4.97;0.68;;;17.70;49.20;;;;;;5088242;28;20116;-76
2024/04/01 06:42:11;;;;;;;3.85;0.80;;;17.90;48.30;;;;;;5056699;28;20612;-76
2024/04/01 06:44:37;;;;;;;5.05;0.80;;;18.10;48.20;;;;;;5095415;28;20055;-76
2024/04/01 06:47:03;;;;;;;4.43;0.60;;;18.30;47.40;;;;;;5074988;28;20056;-76
2024/04/01 06:49:29;;;;;;;5.00;0.65;;;18.40;47.00;;;;;;5056846;28;20464;-76
2024/04/01 06:51:55;;;;;;;3.85;0.68;;;18.60;47.00;;;;;;5059398;28;20108;-76
2024/04/01 06:54:23;;;;;;;4.80;1.00;;;18.70;47.10;;;;;;5074385;28;20110;-77
2024/04/01 06:56:49;;;;;;;11.25;2.15;;;18.70;47.70;;;;;;5056953;28;20048;-77
2024/04/01 06:59:15;;;;;;;10.85;2.53;;;18.80;48.90;;;;;;5059281;28;20089;-77
2024/04/01 07:01:43;;;;;;;13.70;1.88;;;18.80;49.40;;;;;;5075514;28;20056;-77
2024/04/01 07:04:11;;;;;;;16.02;1.50;;;18.80;50.10;;;;;;5075577;28;20051;-77
2024/04/01 07:06:39;;;;;;;11.82;1.42;;;18.80;50.30;;;;;;5075316;28;20056;-77
2024/04/01 07:09:07;;;;;;;21.83;2.03;;;18.70;49.90;;;;;;5056132;28;20048;-77
2024/04/01 07:11:33;;;;;;;9.05;1.55;;;18.70;49.90;;;;;;5075344;28;20064;-76
2024/04/01 07:13:59;;;;;;;9.43;1.55;;;18.50;49.70;;;;;;5075096;28;20130;-77
2024/04/01 07:16:24;;;;;;;5.82;1.20;;;18.50;49.70;;;;;;5058435;28;20059;-76
2024/04/01 07:18:50;;;;;;;6.10;0.98;;;18.40;50.00;;;;;;5058942;28;20093;-76
2024/04/01 07:21:16;;;;;;;11.18;1.30;;;18.30;49.90;;;;;;5058151;28;20520;-76
2024/04/01 07:23:46;;;;;;;9.73;1.80;;;18.40;50.40;;;;;;5074736;28;20131;-77
2024/04/01 07:26:12;;;;;;;7.72;1.60;;;18.40;50.20;;;;;;5073455;28;20056;-77
2024/04/01 07:28:38;;;;;;;6.45;1.77;;;18.50;50.20;;;;;;5075043;28;20055;-77
2024/04/01 07:31:07;;;;;;;9.18;1.45;;;18.60;50.20;;;;;;5058218;28;20052;-79
2024/04/01 07:33:33;;;;;;;8.25;1.75;;;18.70;50.60;;;;;;5056947;28;20063;-77
2024/04/01 07:35:59;;;;;;;8.35;1.70;;;18.80;51.00;;;;;;5058092;28;20158;-77
2024/04/01 07:38:26;;;;;;;14.43;2.33;;;18.90;51.00;;;;;;5057955;28;20067;-77
2024/04/01 07:40:52;;;;;;;15.50;2.30;;;19.00;51.70;;;;;;5057815;28;20460;-77
2024/04/01 07:43:26;;;;;;;7.60;1.85;;;19.10;51.20;;;;;;5075443;28;20040;-77
2024/04/01 07:45:52;;;;;;;14.80;1.73;;;19.20;51.30;;;;;;5058352;28;20091;-77
2024/04/01 07:48:18;;;;;;;12.05;2.33;;;19.30;52.40;;;;;;5074671;28;20097;-77
2024/04/01 07:50:49;;;;;;;11.00;1.55;;;19.40;52.50;;;;;;5074315;28;20464;-77
2024/04/01 07:53:15;;;;;;;12.70;2.30;;;19.50;50.70;;;;;;5057899;28;20060;-77
2024/04/01 07:55:41;;;;;;;11.65;2.28;;;19.70;51.00;;;;;;5058096;28;20586;-77
2024/04/01 07:58:07;;;;;;;9.63;2.58;;;19.80;50.40;;;;;;5057519;28;20392;-77
2024/04/01 08:00:36;;;;;;;13.30;1.45;;;19.90;49.80;;;;;;5048050;28;20064;-77
2024/04/01 08:03:02;;;;;;;8.77;1.25;;;20.10;49.60;;;;;;5058142;28;20052;-77
2024/04/01 08:05:28;;;;;;;12.85;1.65;;;20.20;49.20;;;;;;5058377;28;20052;-77
2024/04/01 08:07:56;;;;;;;8.20;1.50;;;20.40;48.70;;;;;;5057712;28;20062;-76
2024/04/01 08:10:22;;;;;;;11.60;1.65;;;20.60;48.90;;;;;;5057800;28;20058;-77
2024/04/01 08:12:48;;;;;;;12.05;1.75;;;20.80;49.30;;;;;;5074561;28;20131;-77
2024/04/01 08:15:16;;;;;;;9.35;1.55;;;21.10;49.50;;;;;;5073990;28;20048;-77
2024/04/01 08:17:42;;;;;;;14.63;1.63;;;21.40;47.60;;;;;;5046492;28;20064;-77
2024/04/01 08:20:08;;;;;;;3.83;0.65;;;21.60;45.10;;;;;;5054979;28;20052;-79
2024/04/01 08:22:34;;;;;;;5.75;0.80;;;22.00;41.40;;;;;;5057531;28;20059;-77
2024/04/01 08:25:00;;;;;;;3.47;0.70;;;22.40;40.40;;;;;;5057431;28;20101;-77
2024/04/01 08:27:26;;;;;;;2.35;0.65;;;23.20;36.20;;;;;;5057224;28;20488;-77
2024/04/01 08:29:54;;;;;;;6.18;0.47;;;24.00;33.30;;;;;;5057621;28;20105;-77
2024/04/01 08:32:20;;;;;;;6.93;0.40;;;24.70;30.10;;;;;;5073823;28;20056;-77
2024/04/01 08:34:46;;;;;;;7.28;0.73;;;25.20;30.00;;;;;;5074129;28;20066;-77
2024/04/01 08:37:16;;;;;;;8.13;0.50;;;25.40;29.70;;;;;;5056638;28;20433;-77
2024/04/01 08:39:42;;;;;;;8.32;0.82;;;25.60;29.40;;;;;;5048856;28;20062;-77
2024/04/01 08:42:11;;;;;;;7.40;0.90;;;25.70;28.70;;;;;;5074032;28;20124;-77
2024/04/01 08:44:39;;;;;;;6.72;1.05;;;25.80;28.20;;;;;;5050145;28;20048;-77
2024/04/01 08:47:06;;;;;;;8.50;1.50;;;25.90;28.50;;;;;;5063882;28;20122;-77
2024/04/01 08:49:55;;;;;;;11.82;2.03;;;25.90;27.80;;;;;;5057274;28;20056;-77
2024/04/01 08:52:25;;;;;;;11.95;2.40;;;26.00;28.10;;;;;;5047824;28;20063;-77
2024/04/01 08:54:52;;;;;;;6.90;1.25;;;26.00;27.90;;;;;;5071053;28;20055;-77
2024/04/01 08:57:18;;;;;;;8.23;1.48;;;26.00;29.20;;;;;;5073978;28;20392;-77
2024/04/01 08:59:45;;;;;;;11.57;1.00;;;26.10;32.20;;;;;;5074010;28;20571;-77
2024/04/01 09:02:10;;;;;;;7.78;1.17;;;26.30;33.60;;;;;;5074222;28;20055;-78
2024/04/01 09:04:36;;;;;;;4.65;0.70;;;26.50;33.20;;;;;;5057259;28;20052;-77
2024/04/01 09:07:03;;;;;;;9.40;1.33;;;26.80;32.50;;;;;;5057421;28;20500;-78
2024/04/01 09:09:28;;;;;;;9.10;0.90;;;27.10;31.90;;;;;;5073640;28;20128;-79
2024/04/01 09:11:56;;;;;;;9.98;0.90;;;27.40;32.00;;;;;;5077406;28;20468;-78
2024/04/01 09:14:22;;;;;;;7.97;1.00;;;27.80;32.60;;;;;;5060563;28;20077;-78
2024/04/01 09:16:52;;;;;;;5.07;1.15;;;28.10;31.30;;;;;;5060628;28;20079;-78
2024/04/01 09:19:18;;;;;;;6.50;1.05;;;28.50;31.10;;;;;;5077452;28;20048;-78
2024/04/01 09:21:49;;;;;;;6.15;0.80;;;28.80;30.30;;;;;;5060441;28;20063;-78
2024/04/01 09:24:15;;;;;;;6.95;0.77;;;29.00;29.80;;;;;;5060842;28;20362;-78
2024/04/01 09:26:44;;;;;;;17.08;1.77;;;29.20;29.50;;;;;;5060661;28;20060;-78
2024/04/01 09:29:10;;;;;;;15.40;2.45;;;29.40;29.40;;;;;;5060954;28;20366;-78
2024/04/01 09:31:36;;;;;;;16.33;1.70;;;29.30;27.60;;;;;;5060700;28;20087;-78
2024/04/01 09:34:02;;;;;;;11.50;1.80;;;29.40;28.20;;;;;;5061043;28;20532;-78
2024/04/01 09:36:28;;;;;;;15.48;2.22;;;29.60;29.40;;;;;;5060656;28;20430;-78
2024/04/01 09:38:57;;;;;;;22.05;2.53;;;30.00;28.10;;;;;;5066102;28;20055;-78
2024/04/01 09:41:24;;;;;;;17.60;1.55;;;30.30;27.40;;;;;;5074459;28;20106;-78
2024/04/01 09:43:57;;;;;;;10.70;1.58;;;30.50;30.00;;;;;;5060864;28;20343;-78
2024/04/01 09:46:23;;;;;;;;;;;30.60;30.70;;;;;;5077090;28;20060;-78
2024/04/01 09:48:52;;;;;;;10.40;1.38;;;30.50;30.80;;;;;;5077219;28;19935;-78
2024/04/01 09:51:20;;;;;;;7.80;1.40;;;30.40;31.70;;;;;;5075690;28;20389;-78
2024/04/01 09:53:48;;;;;;;6.25;1.55;;;30.30;31.40;;;;;;5076409;28;20066;-78
2024/04/01 09:56:19;;;;;;;6.75;1.20;;;30.00;31.80;;;;;;5076477;28;20491;-78
2024/04/01 09:59:09;;;;;;;9.90;1.58;;;29.80;32.50;;;;;;5076441;28;20055;-78
2024/04/01 10:02:12;;;;;;;9.23;1.35;;;29.50;33.40;;;;;;5059929;28;20411;-78
2024/04/01 10:04:53;;;;;;;11.45;1.33;;;29.30;33.80;;;;;;5063240;28;20121;-78
2024/04/01 10:07:46;;;;;;;9.55;1.38;;;29.10;34.60;;;;;;5059751;28;20055;-77
2024/04/01 10:11:02;;;;;;;14.50;1.80;;;28.90;36.20;;;;;;5074471;28;20056;-78
2024/04/01 10:13:46;;;;;;;18.30;2.17;;;28.90;36.40;;;;;;4999007;28;20417;-78
2024/04/01 10:16:40;;;;;;;9.27;1.20;;;28.80;37.10;;;;;;5059404;28;20468;-78
2024/04/01 10:19:27;;;;;;;10.07;1.80;;;28.70;37.40;;;;;;5065075;28;20045;-78
2024/04/01 10:22:19;;;;;;;7.90;1.60;;;28.60;37.30;;;;;;5089047;28;20064;-78
2024/04/01 10:25:26;;;;;;;13.68;1.80;;;28.50;37.60;;;;;;5060028;28;20110;-77
2024/04/01 10:28:25;;;;;;;11.20;1.95;;;28.30;36.40;;;;;;5049713;28;20052;-78
2024/04/01 10:31:14;;;;;;;12.73;2.25;;;28.20;36.60;;;;;;5075471;28;20467;-78
2024/04/01 10:34:02;;;;;;;20.25;2.58;;;28.10;36.40;;;;;;5085633;28;20067;-78
2024/04/01 10:36:34;;;;;;;18.92;2.65;;;28.20;35.90;;;;;;5073709;28;20052;-78
2024/04/01 10:39:20;;;;;;;12.27;2.47;;;28.20;35.30;;;;;;5074803;28;20056;-78
2024/04/01 10:42:13;;;;;;;13.05;1.83;;;28.20;35.60;;;;;;5072410;28;20410;-78
2024/04/01 10:44:58;;;;;;;31.80;3.47;;;28.30;35.80;;;;;;5059100;28;20465;-77
2024/04/01 10:47:55;;;;;;;18.00;2.22;;;28.50;36.50;;;;;;5075704;28;20048;-78
2024/04/01 10:50:56;;;;;;;14.82;2.30;;;28.60;34.80;;;;;;5058977;28;20056;-78
2024/04/01 10:53:58;;;;;;;17.42;2.75;;;28.60;36.10;;;;;;5054699;28;20056;-78
2024/04/01 10:56:47;;;;;;;20.70;2.90;;;28.50;33.20;;;;;;5022707;28;20071;-78
2024/04/01 10:59:47;;;;;;;19.38;2.58;;;28.20;33.20;;;;;;5022525;28;20106;-78
2024/04/01 11:02:48;;;;;;;16.17;3.33;;;28.00;33.60;;;;;;5073382;28;20056;-77
2024/04/01 11:05:43;;;;;;;19.42;3.47;;;27.80;35.00;;;;;;4991150;28;20045;-77
2024/04/01 11:08:24;;;;;;;17.20;1.75;;;27.60;35.10;;;;;;5067114;28;20052;-77
2024/04/01 11:11:00;;;;;;;15.75;1.02;;;27.10;35.10;;;;;;5073242;28;20044;-77
2024/04/01 11:13:28;;;;;;;14.18;1.20;;;25.70;37.80;;;;;;5057645;28;20083;-77
2024/04/01 11:15:56;;;;;;;5.60;0.70;;;24.60;40.30;;;;;;5071660;28;20122;-77
2024/04/01 11:18:24;;;;;;;6.32;0.60;;;23.60;41.80;;;;;;5084718;28;20040;-77
2024/04/01 11:21:33;;;;;;;6.88;0.52;;;22.80;43.70;;;;;;5058295;28;20056;-77
2024/04/01 11:24:11;;;;;;;4.20;0.30;;;22.40;44.40;;;;;;5026101;28;20048;-77
2024/04/01 11:26:43;;;;;;;7.30;1.15;;;21.90;46.20;;;;;;5074961;28;20052;-77
2024/04/01 11:29:45;;;;;;;3.90;0.50;;;21.50;47.10;;;;;;5058154;28;20469;-79
2024/04/01 11:32:14;;;;;;;1.95;0.40;;;21.40;47.20;;;;;;5026189;28;20083;-77
2024/04/01 11:35:03;;;;;;;1.33;0.30;;;21.40;47.50;;;;;;5074601;28;20093;-77
2024/04/01 11:37:50;;;;;;;0.93;0.30;;;21.40;45.80;;;;;;5073844;28;20068;-77
2024/04/01 11:40:20;;;;;;;1.02;0.10;;;21.60;46.40;;;;;;5057489;28;20425;-77
2024/04/01 11:42:54;;;;;;;0.43;0.30;;;22.00;44.70;;;;;;5074270;28;20048;-79
2024/04/01 11:45:24;;;;;;;4.13;0.35;;;21.90;44.40;;;;;;5072245;28;20048;-77
2024/04/01 11:47:51;;;;;;;6.75;0.47;;;21.70;44.70;;;;;;5058109;28;20052;-77
2024/04/01 11:50:19;;;;;;;5.78;0.50;;;21.30;45.20;;;;;;5074702;28;20051;-77
2024/04/01 11:52:57;;;;;;;1.30;0.30;;;21.00;45.60;;;;;;5074136;28;20456;-78
2024/04/01 11:55:23;;;;;;;2.85;0.30;;;20.90;45.90;;;;;;5072834;28;20071;-77
2024/04/01 11:57:51;;;;;;;2.30;0.38;;;20.80;45.90;;;;;;5057526;28;20356;-78
2024/04/01 12:00:17;;;;;;;0.52;0.40;;;20.70;45.70;;;;;;5069767;28;20477;-78
2024/04/01 12:02:53;;;;;;;0.47;0.20;;;20.60;46.50;;;;;;5074591;28;20133;-78
2024/04/01 12:05:20;;;;;;;2.05;0.17;;;20.60;46.30;;;;;;5057651;28;20464;-77
2024/04/01 12:07:47;;;;;;;0.28;0.17;;;20.50;45.90;;;;;;5074324;28;20059;-77
2024/04/01 12:10:17;;;;;;;0.13;0.10;;;20.60;46.20;;;;;;5053702;28;20063;-78
2024/04/01 12:12:49;;;;;;;3.30;0.20;;;20.60;46.40;;;;;;5057774;28;20087;-77
2024/04/01 12:15:19;;;;;;;0.75;0.22;;;20.50;46.40;;;;;;5074152;28;20052;-77
2024/04/01 12:17:46;;;;;;;0.25;0.13;;;20.40;45.90;;;;;;5060928;28;20377;-78
2024/04/01 12:20:12;;;;;;;0.65;0.20;;;20.20;46.30;;;;;;5057255;28;20059;-77
2024/04/01 12:22:40;;;;;;;3.00;0.30;;;20.10;46.20;;;;;;5057733;28;20125;-77
2024/04/01 12:25:08;;;;;;;0.50;0.10;;;20.00;46.80;;;;;;5072323;28;20044;-77
2024/04/01 12:27:36;;;;;;;1.13;0.10;;;19.90;46.60;;;;;;5057348;28;20113;-77
2024/04/01 12:30:06;;;;;;;1.20;0.20;;;19.90;46.60;;;;;;5057306;28;20121;-77
2024/04/01 12:32:43;;;;;;;1.10;0.10;;;20.20;47.00;;;;;;5054617;28;20053;-78
2024/04/01 12:35:15;;;;;;;1.92;0.17;;;20.40;44.10;;;;;;5074421;28;20060;-77
2024/04/01 12:37:41;;;;;;;0.20;0.10;;;20.10;44.70;;;;;;5074065;28;20052;-77
2024/04/01 12:40:10;;;;;;;1.30;0.20;;;19.90;45.50;;;;;;5073926;28;20052;-77
2024/04/01 12:42:37;;;;;;;0.50;0.20;;;19.70;46.40;;;;;;5057396;28;20051;-77
2024/04/01 12:45:09;;;;;;;1.77;0.10;;;19.50;46.20;;;;;;5077215;28;20052;-77
2024/04/01 12:47:36;;;;;;;1.17;0.40;;;19.30;46.20;;;;;;5080904;28;20060;-78
2024/04/01 12:50:08;;;;;;;0.40;0.28;;;18.90;46.60;;;;;;5064636;28;20449;-77
2024/04/01 12:52:55;;;;;;;0.63;0.10;;;18.70;46.90;;;;;;5080608;28;20056;-77
2024/04/01 12:55:29;;;;;;;1.48;0.10;;;18.60;47.90;;;;;;5080028;28;20055;-77
2024/04/01 12:58:10;;;;;;;0.28;0.20;;;18.70;47.80;;;;;;5085099;28;20101;-78